Time;durP1;ratioP1;P1;durP2;ratioP2;P2;SDS_P1;SDS_P2;PMS_P1;PMS_P2;Temp;Humidity;BMP_temperature;BMP_pressure;BME280_temperature;BME280_humidity;BME280_pressure;Samples;Min_cycle;Max_cycle;Signal;HPM_P1;HPM_P2
2022/04/15 00:01:27;;;;;;;4.78;2.50;;;8.60;99.90;;;;;;4995276;28;20046;-77
2022/04/15 00:03:56;;;;;;;6.65;2.38;;;8.60;99.90;;;;;;4995026;28;20033;-75
2022/04/15 00:06:24;;;;;;;7.53;3.55;;;8.60;99.90;;;;;;5013007;28;20018;-75
2022/04/15 00:08:51;;;;;;;12.15;2.22;;;8.60;99.90;;;;;;5012517;28;20045;-76
2022/04/15 00:11:16;;;;;;;8.80;2.55;;;8.70;99.90;;;;;;4994743;28;20089;-74
2022/04/15 00:13:42;;;;;;;6.78;2.75;;;8.70;99.90;;;;;;5012237;28;20452;-75
2022/04/15 00:16:09;;;;;;;7.47;2.10;;;8.70;99.90;;;;;;5012163;28;20057;-74
2022/04/15 00:18:35;;;;;;;7.20;2.72;;;8.70;99.90;;;;;;4995115;28;20101;-75
2022/04/15 00:21:02;;;;;;;4.18;2.50;;;8.70;99.90;;;;;;4995703;28;20028;-75
2022/04/15 00:23:28;;;;;;;12.75;2.95;;;8.70;99.90;;;;;;5011223;28;20056;-72
2022/04/15 00:25:54;;;;;;;6.70;3.08;;;8.70;99.90;;;;;;5012721;28;20026;-76
2022/04/15 00:28:21;;;;;;;9.60;2.53;;;8.70;99.90;;;;;;4995224;28;20536;-74
2022/04/15 00:30:47;;;;;;;8.25;2.30;;;8.70;99.90;;;;;;5012467;28;20085;-74
2022/04/15 00:33:13;;;;;;;7.32;3.50;;;8.70;99.90;;;;;;4995442;28;20038;-77
2022/04/15 00:35:39;;;;;;;3.50;2.05;;;8.70;99.90;;;;;;5012064;28;20022;-74
2022/04/15 00:38:05;;;;;;;5.28;2.92;;;8.70;99.90;;;;;;5012720;28;20110;-74
2022/04/15 00:40:31;;;;;;;5.13;2.90;;;8.70;99.90;;;;;;5012483;28;20058;-75
2022/04/15 00:42:56;;;;;;;3.25;1.95;;;8.70;99.90;;;;;;5012104;28;20076;-76
2022/04/15 00:45:23;;;;;;;8.95;2.42;;;8.60;99.90;;;;;;5012878;28;20026;-75
2022/04/15 00:47:54;;;;;;;12.60;3.17;;;8.60;99.90;;;;;;4994190;28;20052;-76
2022/04/15 00:50:23;;;;;;;12.02;3.15;;;8.60;99.90;;;;;;5013711;28;20033;-74
2022/04/15 00:52:51;;;;;;;5.32;2.95;;;8.60;99.90;;;;;;4999093;28;20030;-75
2022/04/15 00:55:19;;;;;;;5.07;2.67;;;8.60;99.90;;;;;;4998485;28;20034;-74
2022/04/15 00:57:50;;;;;;;7.63;2.67;;;8.70;99.90;;;;;;5015981;28;20041;-76
2022/04/15 01:00:18;;;;;;;4.47;2.50;;;8.60;99.90;;;;;;5016519;28;20466;-76
2022/04/15 01:02:45;;;;;;;6.10;3.33;;;8.60;99.90;;;;;;4998178;28;20041;-74
2022/04/15 01:05:12;;;;;;;4.78;2.67;;;8.60;99.90;;;;;;5015321;28;20121;-75
2022/04/15 01:07:46;;;;;;;6.82;3.08;;;8.50;99.90;;;;;;5016385;28;20037;-74
2022/04/15 01:10:13;;;;;;;7.18;3.42;;;8.50;99.90;;;;;;5015735;28;20041;-74
2022/04/15 01:12:43;;;;;;;5.50;2.67;;;8.50;99.90;;;;;;4998029;28;20041;-75
2022/04/15 01:15:22;;;;;;;8.07;3.25;;;8.40;99.90;;;;;;4998254;28;20033;-74
2022/04/15 01:17:48;;;;;;;10.77;3.67;;;8.40;99.90;;;;;;5015799;28;20030;-74
2022/04/15 01:20:14;;;;;;;6.65;2.97;;;8.40;99.90;;;;;;5015531;28;20030;-76
2022/04/15 01:22:44;;;;;;;5.75;3.17;;;8.40;99.90;;;;;;5015459;28;20036;-73
2022/04/15 01:25:13;;;;;;;6.57;2.95;;;8.40;99.90;;;;;;4997210;28;20026;-76
2022/04/15 01:27:42;;;;;;;5.95;2.70;;;8.30;99.90;;;;;;5015113;28;20029;-74
2022/04/15 01:30:17;;;;;;;13.18;3.78;;;8.30;99.90;;;;;;5015195;28;20026;-74
2022/04/15 01:32:42;;;;;;;;;;;8.30;99.90;;;;;;4998214;28;20053;-73
2022/04/15 01:35:10;;;;;;;7.60;3.50;;;8.30;99.90;;;;;;4997957;28;21503;-75
2022/04/15 01:37:37;;;;;;;5.93;3.03;;;8.30;99.90;;;;;;5015608;28;20014;-74
2022/04/15 01:40:07;;;;;;;11.98;2.92;;;8.30;99.90;;;;;;5014428;28;20041;-76
2022/04/15 01:42:35;;;;;;;9.32;3.30;;;8.30;99.90;;;;;;5015721;28;20145;-75
2022/04/15 01:45:01;;;;;;;4.43;2.40;;;8.30;99.90;;;;;;5014966;28;20076;-74
2022/04/15 01:47:27;;;;;;;4.45;2.92;;;8.30;99.90;;;;;;4997673;28;20049;-74
2022/04/15 01:50:03;;;;;;;5.72;3.30;;;8.30;99.90;;;;;;5016317;28;20099;-75
2022/04/15 01:52:28;;;;;;;7.22;3.10;;;8.30;99.90;;;;;;5014088;28;20042;-75
2022/04/15 01:54:54;;;;;;;6.22;2.85;;;8.20;99.90;;;;;;5014482;28;20149;-74
2022/04/15 01:57:21;;;;;;;6.70;2.90;;;8.20;99.90;;;;;;5015032;28;20165;-76
2022/04/15 01:59:47;;;;;;;4.32;3.08;;;8.20;99.90;;;;;;4997325;28;20038;-75
2022/04/15 02:02:12;;;;;;;9.95;2.95;;;8.20;99.90;;;;;;4995617;28;20516;-75
2022/04/15 02:04:38;;;;;;;13.35;3.33;;;8.10;99.90;;;;;;5015527;28;20034;-73
2022/04/15 02:07:04;;;;;;;4.78;2.65;;;8.00;99.90;;;;;;4997407;28;20030;-75
2022/04/15 02:09:30;;;;;;;6.53;3.08;;;8.00;99.90;;;;;;5013981;28;20026;-75
2022/04/15 02:11:56;;;;;;;5.20;2.90;;;8.00;99.90;;;;;;5014504;28;20092;-74
2022/04/15 02:14:22;;;;;;;6.47;3.33;;;8.00;99.90;;;;;;5014241;28;20033;-74
2022/04/15 02:16:51;;;;;;;5.25;2.47;;;7.90;99.90;;;;;;5014873;28;20033;-76
2022/04/15 02:19:17;;;;;;;6.43;3.22;;;7.90;99.90;;;;;;4996925;28;20029;-77
2022/04/15 02:21:43;;;;;;;7.68;3.45;;;7.90;99.90;;;;;;5014540;28;20049;-75
2022/04/15 02:24:09;;;;;;;11.77;3.88;;;7.90;99.90;;;;;;4996631;28;20021;-75
2022/04/15 02:26:34;;;;;;;13.70;3.92;;;7.90;99.90;;;;;;4996895;28;20036;-75
2022/04/15 02:29:00;;;;;;;6.85;3.30;;;7.90;99.90;;;;;;4996140;28;20022;-76
2022/04/15 02:31:26;;;;;;;7.90;3.00;;;7.90;99.90;;;;;;4996750;28;20162;-77
2022/04/15 02:33:59;;;;;;;5.55;2.83;;;7.90;99.90;;;;;;4996688;28;20084;-76
2022/04/15 02:36:25;;;;;;;6.55;3.65;;;7.90;99.90;;;;;;4996023;28;20042;-76
2022/04/15 02:38:51;;;;;;;6.13;2.55;;;7.90;99.90;;;;;;4997120;28;20034;-75
2022/04/15 02:41:17;;;;;;;4.38;2.90;;;7.90;99.90;;;;;;4996654;28;20022;-77
2022/04/15 02:43:43;;;;;;;7.63;2.67;;;7.90;99.90;;;;;;5013879;28;20029;-76
2022/04/15 02:46:09;;;;;;;7.13;3.58;;;7.90;99.90;;;;;;5013660;28;20034;-75
2022/04/15 02:48:36;;;;;;;6.03;3.10;;;7.90;99.90;;;;;;5013574;28;20192;-75
2022/04/15 02:51:02;;;;;;;5.57;2.88;;;7.90;99.90;;;;;;4995439;28;20022;-76
2022/04/15 02:53:29;;;;;;;11.48;4.50;;;7.90;99.90;;;;;;5014118;28;20252;-75
2022/04/15 02:55:55;;;;;;;9.02;4.82;;;7.90;99.90;;;;;;4995000;28;20089;-76
2022/04/15 02:58:21;;;;;;;9.60;5.22;;;7.90;99.90;;;;;;5013593;28;20030;-77
2022/04/15 03:00:47;;;;;;;7.55;4.38;;;7.90;99.90;;;;;;5013820;28;20045;-75
2022/04/15 03:03:14;;;;;;;11.88;4.55;;;7.90;99.90;;;;;;5013736;28;20157;-76
2022/04/15 03:05:40;;;;;;;8.88;4.18;;;7.90;99.90;;;;;;5012911;28;20036;-75
2022/04/15 03:08:06;;;;;;;9.52;3.90;;;7.90;99.90;;;;;;5013964;28;20075;-75
2022/04/15 03:10:32;;;;;;;7.88;3.55;;;8.00;99.90;;;;;;5013607;28;20036;-75
2022/04/15 03:12:57;;;;;;;6.18;3.78;;;7.90;99.90;;;;;;5013790;28;20070;-74
2022/04/15 03:15:23;;;;;;;7.50;3.33;;;7.90;99.90;;;;;;5013066;28;20110;-76
2022/04/15 03:17:49;;;;;;;5.25;3.33;;;7.90;99.90;;;;;;4996154;28;20018;-74
2022/04/15 03:20:14;;;;;;;6.40;3.15;;;7.90;99.90;;;;;;5013555;28;20801;-76
2022/04/15 03:22:42;;;;;;;9.70;3.80;;;7.90;99.90;;;;;;5013781;28;20033;-76
2022/04/15 03:25:11;;;;;;;5.63;3.60;;;7.90;99.90;;;;;;5013565;28;20158;-75
2022/04/15 03:27:37;;;;;;;12.00;3.42;;;7.80;99.90;;;;;;5013392;28;20030;-74
2022/04/15 03:30:04;;;;;;;5.15;2.90;;;7.80;99.90;;;;;;5013143;28;20022;-75
2022/04/15 03:32:30;;;;;;;5.97;2.95;;;7.80;99.90;;;;;;4994333;28;20467;-74
2022/04/15 03:34:57;;;;;;;4.63;2.67;;;7.70;99.90;;;;;;4995447;28;20064;-75
2022/04/15 03:37:23;;;;;;;10.00;2.90;;;7.70;99.90;;;;;;5013494;28;20022;-75
2022/04/15 03:39:50;;;;;;;7.47;3.38;;;7.80;99.90;;;;;;5013231;28;20030;-77
2022/04/15 03:42:15;;;;;;;5.20;3.03;;;7.80;99.90;;;;;;5013307;28;20018;-75
2022/04/15 03:44:41;;;;;;;4.57;2.95;;;7.80;99.90;;;;;;4995311;28;20064;-74
2022/04/15 03:47:07;;;;;;;4.22;2.40;;;7.80;99.90;;;;;;5012660;28;20056;-74
2022/04/15 03:49:33;;;;;;;10.43;2.92;;;7.80;99.90;;;;;;4995881;28;20064;-75
2022/04/15 03:51:59;;;;;;;10.50;3.28;;;7.80;99.90;;;;;;5011966;28;20046;-75
2022/04/15 03:54:25;;;;;;;10.35;3.30;;;7.80;99.90;;;;;;4995092;28;20030;-73
2022/04/15 03:56:52;;;;;;;5.85;2.80;;;7.80;99.90;;;;;;4995806;28;20041;-77
2022/04/15 03:59:18;;;;;;;7.40;2.88;;;7.80;99.90;;;;;;5013519;28;20033;-76
2022/04/15 04:01:44;;;;;;;4.90;2.92;;;7.80;99.90;;;;;;4994687;28;20438;-75
2022/04/15 04:04:10;;;;;;;6.28;3.22;;;7.80;99.90;;;;;;5013115;28;20048;-75
2022/04/15 04:06:36;;;;;;;8.40;2.97;;;7.70;99.90;;;;;;5012609;28;20038;-77
2022/04/15 04:09:02;;;;;;;8.27;3.75;;;7.70;99.90;;;;;;4995212;28;20030;-75
2022/04/15 04:11:28;;;;;;;12.25;3.15;;;7.80;99.90;;;;;;5012172;28;20025;-74
2022/04/15 04:13:54;;;;;;;7.72;3.58;;;7.80;99.90;;;;;;5012681;28;20070;-75
2022/04/15 04:16:20;;;;;;;15.55;3.92;;;7.80;99.90;;;;;;5012247;28;20026;-76
2022/04/15 04:18:46;;;;;;;7.80;4.43;;;7.80;99.90;;;;;;5012428;28;20469;-75
2022/04/15 04:21:12;;;;;;;10.38;4.55;;;7.80;99.90;;;;;;4994150;28;20089;-76
2022/04/15 04:23:38;;;;;;;6.50;3.60;;;7.80;99.90;;;;;;4995315;28;20043;-76
2022/04/15 04:26:04;;;;;;;8.95;2.88;;;7.80;99.90;;;;;;4997057;28;20018;-76
2022/04/15 04:28:32;;;;;;;6.47;3.50;;;7.80;99.90;;;;;;4998997;28;20082;-77
2022/04/15 04:30:58;;;;;;;9.10;4.70;;;7.80;99.90;;;;;;5016664;28;20037;-77
2022/04/15 04:33:24;;;;;;;7.68;4.15;;;7.80;99.90;;;;;;5016764;28;20042;-75
2022/04/15 04:35:50;;;;;;;7.53;3.78;;;7.80;99.90;;;;;;5016445;28;20191;-75
2022/04/15 04:38:16;;;;;;;12.48;3.92;;;7.80;99.90;;;;;;5017603;28;20038;-73
2022/04/15 04:40:43;;;;;;;11.23;4.43;;;7.80;99.90;;;;;;4998240;28;20026;-75
2022/04/15 04:43:10;;;;;;;10.15;4.75;;;7.80;99.90;;;;;;4999167;28;20041;-75
2022/04/15 04:45:37;;;;;;;8.55;4.32;;;7.80;99.90;;;;;;5016247;28;20033;-76
2022/04/15 04:48:04;;;;;;;7.72;4.38;;;7.80;99.90;;;;;;4998506;28;20061;-76
2022/04/15 04:50:31;;;;;;;12.15;4.90;;;7.80;99.90;;;;;;4997943;28;20032;-74
2022/04/15 04:52:57;;;;;;;18.20;5.43;;;7.90;99.90;;;;;;4998779;28;20379;-75
2022/04/15 04:55:22;;;;;;;9.60;4.43;;;7.90;99.90;;;;;;5016548;28;20098;-75
2022/04/15 04:57:48;;;;;;;13.90;4.82;;;7.90;99.90;;;;;;4998668;28;20402;-76
2022/04/15 05:00:16;;;;;;;16.75;5.07;;;7.80;99.90;;;;;;4997673;28;20117;-76
2022/04/15 05:02:42;;;;;;;8.90;4.45;;;7.80;99.90;;;;;;5015273;28;20065;-75
2022/04/15 05:05:09;;;;;;;10.32;5.43;;;7.80;99.90;;;;;;5015820;28;20023;-73
2022/04/15 05:07:35;;;;;;;13.82;5.38;;;7.80;99.90;;;;;;4998262;28;20045;-74
2022/04/15 05:10:00;;;;;;;9.40;5.57;;;7.80;99.90;;;;;;5015998;28;20036;-77
2022/04/15 05:12:26;;;;;;;12.20;5.93;;;7.80;99.90;;;;;;4999135;28;20042;-74
2022/04/15 05:14:52;;;;;;;16.10;6.72;;;7.90;99.90;;;;;;5015627;28;20026;-74
2022/04/15 05:17:20;;;;;;;16.27;6.13;;;7.90;99.90;;;;;;5015462;28;20088;-75
2022/04/15 05:19:46;;;;;;;17.88;5.47;;;7.90;99.90;;;;;;5016074;28;20113;-72
2022/04/15 05:22:12;;;;;;;15.77;5.85;;;7.90;99.90;;;;;;5015580;28;20072;-71
2022/04/15 05:24:38;;;;;;;12.90;5.38;;;7.80;99.90;;;;;;5015485;28;20084;-72
2022/04/15 05:27:05;;;;;;;15.05;7.07;;;7.80;99.90;;;;;;5015432;28;20023;-74
2022/04/15 05:29:31;;;;;;;15.13;7.43;;;7.90;99.90;;;;;;5015267;28;20033;-71
2022/04/15 05:31:56;;;;;;;17.95;6.05;;;7.90;99.90;;;;;;4996998;28;20115;-73
2022/04/15 05:34:22;;;;;;;17.67;9.63;;;7.90;99.90;;;;;;4998030;28;20034;-74
2022/04/15 05:36:48;;;;;;;26.13;10.48;;;7.80;99.90;;;;;;4997444;28;20034;-73
2022/04/15 05:39:13;;;;;;;27.60;8.35;;;7.80;99.90;;;;;;5015469;28;20028;-72
2022/04/15 05:41:39;;;;;;;23.63;7.57;;;7.80;99.90;;;;;;5014698;28;20494;-73
2022/04/15 05:44:07;;;;;;;27.52;8.98;;;7.80;99.90;;;;;;5014206;28;20038;-72
2022/04/15 05:46:34;;;;;;;26.70;8.02;;;7.70;99.90;;;;;;5015221;28;20021;-73
2022/04/15 05:49:00;;;;;;;15.18;7.95;;;7.80;99.90;;;;;;5015115;28;20057;-73
2022/04/15 05:51:25;;;;;;;16.52;7.35;;;7.70;99.90;;;;;;5015231;28;20034;-73
2022/04/15 05:53:52;;;;;;;15.40;7.20;;;7.70;99.90;;;;;;5015467;28;20042;-73
2022/04/15 05:56:17;;;;;;;16.10;7.03;;;7.80;99.90;;;;;;5015297;28;20019;-71
2022/04/15 05:58:43;;;;;;;12.45;5.18;;;7.70;99.90;;;;;;4997794;28;20026;-71
2022/04/15 06:01:09;;;;;;;16.13;6.22;;;7.80;99.90;;;;;;5016237;28;20042;-71
2022/04/15 06:03:37;;;;;;;15.93;7.28;;;7.80;99.90;;;;;;5014415;28;20022;-72
2022/04/15 06:06:04;;;;;;;14.57;7.47;;;7.80;99.90;;;;;;5013825;28;20025;-73
2022/04/15 06:08:30;;;;;;;12.00;5.95;;;7.80;99.90;;;;;;5015295;28;20030;-72
2022/04/15 06:10:56;;;;;;;13.52;6.13;;;7.70;99.90;;;;;;5014056;28;20049;-73
2022/04/15 06:13:22;;;;;;;17.92;7.78;;;7.70;99.90;;;;;;5015238;28;20042;-71
2022/04/15 06:15:55;;;;;;;19.65;9.55;;;7.60;99.90;;;;;;5014551;28;20049;-74
2022/04/15 06:18:26;;;;;;;20.95;9.30;;;7.60;99.90;;;;;;5014773;28;20037;-75
2022/04/15 06:20:53;;;;;;;21.80;9.40;;;7.60;99.90;;;;;;5015062;28;20060;-72
2022/04/15 06:23:20;;;;;;;21.40;9.52;;;7.50;99.90;;;;;;4995728;28;20056;-75
2022/04/15 06:25:55;;;;;;;18.80;8.35;;;7.50;99.90;;;;;;4993114;28;20624;-72
2022/04/15 06:28:21;;;;;;;17.75;8.70;;;7.50;99.90;;;;;;5015352;28;20064;-73
2022/04/15 06:30:51;;;;;;;15.65;8.13;;;7.50;99.90;;;;;;5014923;28;20065;-73
2022/04/15 06:33:20;;;;;;;14.23;8.02;;;7.40;99.90;;;;;;5013387;28;20044;-74
2022/04/15 06:35:46;;;;;;;17.38;9.57;;;7.40;99.90;;;;;;5013015;28;20030;-73
2022/04/15 06:38:12;;;;;;;19.38;8.75;;;7.50;99.90;;;;;;5012748;28;20029;-73
2022/04/15 06:40:40;;;;;;;23.45;9.07;;;7.40;99.90;;;;;;5013201;28;20030;-73
2022/04/15 06:43:06;;;;;;;15.80;8.32;;;7.40;99.90;;;;;;5014005;28;20046;-73
2022/04/15 06:45:32;;;;;;;19.63;8.57;;;7.40;99.90;;;;;;5013113;28;20057;-73
2022/04/15 06:47:58;;;;;;;19.05;8.43;;;7.50;99.90;;;;;;5009060;28;20050;-73
2022/04/15 06:50:24;;;;;;;21.45;8.05;;;7.50;99.90;;;;;;5013926;28;20037;-74
2022/04/15 06:52:51;;;;;;;20.90;9.07;;;7.50;99.90;;;;;;4995100;28;20042;-73
2022/04/15 06:55:17;;;;;;;25.08;9.90;;;7.50;99.90;;;;;;5013564;28;20037;-74
2022/04/15 06:57:42;;;;;;;21.20;9.25;;;7.50;99.90;;;;;;5013829;28;20037;-73
2022/04/15 07:00:11;;;;;;;22.75;8.52;;;7.60;99.90;;;;;;5013017;28;20018;-73
2022/04/15 07:02:37;;;;;;;15.93;7.85;;;7.60;99.90;;;;;;5013504;28;20026;-74
2022/04/15 07:05:05;;;;;;;20.80;8.35;;;7.50;99.90;;;;;;4996015;28;20033;-73
2022/04/15 07:07:31;;;;;;;19.33;9.10;;;7.60;99.90;;;;;;5012827;28;20031;-73
2022/04/15 07:09:57;;;;;;;19.38;7.18;;;7.60;99.90;;;;;;5013838;28;20048;-73
2022/04/15 07:12:23;;;;;;;30.27;8.45;;;7.70;99.90;;;;;;5014123;28;20038;-72
2022/04/15 07:14:49;;;;;;;21.88;7.90;;;7.70;99.90;;;;;;5013809;28;20040;-73
2022/04/15 07:17:14;;;;;;;27.60;7.00;;;7.70;99.90;;;;;;5013435;28;20054;-73
2022/04/15 07:19:40;;;;;;;20.08;7.68;;;7.80;99.90;;;;;;5010177;28;20034;-73
2022/04/15 07:22:05;;;;;;;19.50;8.10;;;7.80;99.90;;;;;;5010130;28;20065;-74
2022/04/15 07:24:33;;;;;;;26.00;8.10;;;7.80;99.90;;;;;;5012855;28;20027;-73
2022/04/15 07:26:59;;;;;;;15.45;7.85;;;7.80;99.90;;;;;;5009827;28;20048;-73
2022/04/15 07:29:28;;;;;;;12.82;6.05;;;7.80;99.90;;;;;;4995189;28;20033;-71
2022/04/15 07:31:53;;;;;;;12.77;5.90;;;7.80;99.90;;;;;;5013304;28;20027;-71
2022/04/15 07:34:20;;;;;;;23.65;8.80;;;7.90;99.90;;;;;;5013293;28;20256;-72
2022/04/15 07:36:53;;;;;;;16.95;7.95;;;7.90;99.90;;;;;;4995585;28;20034;-73
2022/04/15 07:39:21;;;;;;;16.38;6.80;;;7.90;99.90;;;;;;5014289;28;20025;-72
2022/04/15 07:41:47;;;;;;;17.63;7.13;;;7.90;99.90;;;;;;5012543;28;20053;-72
2022/04/15 07:44:14;;;;;;;19.77;7.97;;;7.90;99.90;;;;;;5011938;28;20021;-72
2022/04/15 07:46:41;;;;;;;17.23;7.13;;;8.00;99.90;;;;;;5012589;28;20030;-72
2022/04/15 07:49:07;;;;;;;22.75;6.32;;;8.10;99.90;;;;;;4995204;28;20053;-72
2022/04/15 07:51:35;;;;;;;16.90;7.10;;;8.10;99.90;;;;;;5013349;28;20096;-72
2022/04/15 07:54:05;;;;;;;14.00;6.65;;;8.10;99.90;;;;;;5013954;28;20041;-72
2022/04/15 07:56:32;;;;;;;16.73;6.63;;;8.10;99.90;;;;;;5013279;28;20408;-71
2022/04/15 07:58:58;;;;;;;16.25;6.90;;;8.10;99.90;;;;;;5012418;28;20041;-72
2022/04/15 08:01:28;;;;;;;16.75;7.43;;;8.10;99.90;;;;;;5014814;28;20018;-72
2022/04/15 08:03:55;;;;;;;10.38;5.47;;;8.10;99.90;;;;;;5012552;28;20019;-73
2022/04/15 08:06:25;;;;;;;14.48;6.45;;;8.10;99.90;;;;;;5012888;28;20038;-73
2022/04/15 08:09:03;;;;;;;24.05;6.95;;;8.10;99.90;;;;;;5011961;28;20030;-73
2022/04/15 08:11:28;;;;;;;20.42;7.38;;;8.10;99.90;;;;;;4994400;28;20050;-73
2022/04/15 08:13:56;;;;;;;18.13;6.75;;;8.10;99.90;;;;;;5012660;28;20042;-73
2022/04/15 08:16:27;;;;;;;21.10;7.63;;;8.10;99.90;;;;;;4995163;28;20374;-74
2022/04/15 08:18:56;;;;;;;17.23;8.90;;;8.20;99.90;;;;;;5013213;28;20058;-73
2022/04/15 08:21:23;;;;;;;16.15;7.60;;;8.20;99.90;;;;;;5011550;28;20151;-74
2022/04/15 08:23:50;;;;;;;22.20;9.23;;;8.30;99.90;;;;;;4993078;28;20470;-73
2022/04/15 08:26:16;;;;;;;18.52;7.25;;;8.40;99.90;;;;;;5012778;28;20034;-74
2022/04/15 08:28:42;;;;;;;20.63;8.30;;;8.40;99.90;;;;;;4994336;28;20033;-73
2022/04/15 08:31:08;;;;;;;14.85;7.45;;;8.40;99.90;;;;;;5012078;28;20035;-73
2022/04/15 08:33:35;;;;;;;17.67;8.45;;;8.40;99.90;;;;;;5013793;28;20040;-73
2022/04/15 08:36:01;;;;;;;14.25;6.97;;;8.40;99.90;;;;;;4994242;28;20029;-73
2022/04/15 08:38:26;;;;;;;25.48;8.40;;;8.30;99.90;;;;;;5013004;28;20053;-74
2022/04/15 08:40:58;;;;;;;16.42;7.15;;;8.30;99.90;;;;;;5012481;28;20072;-74
2022/04/15 08:43:25;;;;;;;14.60;7.50;;;8.30;99.90;;;;;;5012622;28;20030;-74
2022/04/15 08:45:52;;;;;;;13.77;7.05;;;8.30;99.90;;;;;;5012572;28;20045;-75
2022/04/15 08:48:19;;;;;;;24.73;7.85;;;8.30;99.90;;;;;;5012538;28;20050;-73
2022/04/15 08:50:44;;;;;;;14.27;6.93;;;8.30;99.90;;;;;;4996255;28;20034;-73
2022/04/15 08:53:10;;;;;;;20.25;8.32;;;8.30;99.90;;;;;;5011723;28;20056;-73
2022/04/15 08:55:39;;;;;;;11.15;5.68;;;8.30;99.90;;;;;;5012229;28;20037;-74
2022/04/15 08:58:04;;;;;;;26.83;7.63;;;8.40;99.90;;;;;;5011673;28;20046;-74
2022/04/15 09:00:30;;;;;;;12.15;5.68;;;8.50;99.90;;;;;;5013112;28;20037;-73
2022/04/15 09:03:00;;;;;;;20.33;7.05;;;8.50;99.90;;;;;;5012537;28;20026;-73
2022/04/15 09:05:29;;;;;;;17.98;7.40;;;8.60;99.90;;;;;;5010015;28;20030;-74
2022/04/15 09:08:11;;;;;;;15.43;7.45;;;8.50;99.90;;;;;;4995948;28;20061;-74
2022/04/15 09:10:40;;;;;;;23.77;7.30;;;8.60;99.90;;;;;;5010386;28;20033;-72
2022/04/15 09:13:07;;;;;;;12.63;6.75;;;8.70;99.90;;;;;;5014343;28;20057;-74
2022/04/15 09:15:33;;;;;;;18.17;6.18;;;8.80;99.90;;;;;;4999257;28;20062;-75
2022/04/15 09:18:00;;;;;;;15.07;6.35;;;8.80;99.90;;;;;;5016282;28;20037;-73
2022/04/15 09:20:33;;;;;;;17.35;6.85;;;8.80;99.90;;;;;;4998398;28;20045;-72
2022/04/15 09:23:08;;;;;;;19.58;7.32;;;8.90;99.90;;;;;;4997975;28;20026;-72
2022/04/15 09:25:36;;;;;;;22.77;7.25;;;9.00;99.90;;;;;;4998108;28;20022;-73
2022/04/15 09:28:01;;;;;;;12.02;6.18;;;9.10;99.90;;;;;;5015624;28;20025;-73
2022/04/15 09:30:41;;;;;;;10.85;6.22;;;9.10;99.90;;;;;;4998160;28;20026;-75
2022/04/15 09:33:10;;;;;;;13.23;6.25;;;9.10;99.90;;;;;;5015044;28;20031;-74
2022/04/15 09:35:35;;;;;;;19.58;6.28;;;9.20;99.90;;;;;;5015592;28;20026;-74
2022/04/15 09:38:04;;;;;;;13.43;6.70;;;9.30;99.90;;;;;;5014703;28;20030;-74
2022/04/15 09:40:35;;;;;;;12.57;6.70;;;9.30;99.90;;;;;;5015502;28;20026;-74
2022/04/15 09:43:04;;;;;;;16.98;6.15;;;9.30;99.90;;;;;;5014871;28;20018;-73
2022/04/15 09:45:57;;;;;;;14.18;6.38;;;9.40;99.90;;;;;;5013856;28;20377;-75
2022/04/15 09:48:23;;;;;;;11.43;6.10;;;9.50;99.90;;;;;;5013911;28;20050;-72
2022/04/15 09:50:50;;;;;;;12.50;6.28;;;9.60;99.90;;;;;;5013913;28;20024;-74
2022/04/15 09:53:18;;;;;;;18.83;6.43;;;9.60;99.90;;;;;;4998973;28;20394;-74
2022/04/15 09:55:52;;;;;;;12.23;6.10;;;9.60;99.90;;;;;;5016289;28;20080;-73
2022/04/15 09:58:23;;;;;;;20.90;6.82;;;9.60;99.90;;;;;;5015571;28;20483;-74
2022/04/15 10:00:54;;;;;;;16.42;6.72;;;9.60;99.90;;;;;;4998259;28;20050;-74
2022/04/15 10:03:25;;;;;;;13.30;5.93;;;9.60;99.90;;;;;;4998497;28;20065;-74
2022/04/15 10:05:54;;;;;;;13.55;6.28;;;9.60;99.90;;;;;;5015582;28;20053;-73
2022/04/15 10:08:27;;;;;;;22.95;8.05;;;9.60;99.90;;;;;;5015999;28;20061;-73
2022/04/15 10:10:55;;;;;;;15.55;7.05;;;9.70;99.90;;;;;;5015863;28;20080;-73
2022/04/15 10:13:32;;;;;;;19.45;6.90;;;9.80;99.90;;;;;;4996810;28;20479;-73
2022/04/15 10:15:58;;;;;;;13.18;6.88;;;9.80;99.90;;;;;;4998900;28;20117;-73
2022/04/15 10:18:25;;;;;;;10.63;6.40;;;9.80;99.90;;;;;;5012292;28;20041;-74
2022/04/15 10:20:51;;;;;;;10.52;5.38;;;9.80;99.90;;;;;;5014056;28;20030;-73
2022/04/15 10:23:18;;;;;;;18.73;7.13;;;9.80;99.90;;;;;;4996185;28;20030;-73
2022/04/15 10:25:50;;;;;;;18.10;6.85;;;9.80;99.90;;;;;;5012878;28;20386;-74
2022/04/15 10:28:37;;;;;;;18.30;6.07;;;9.80;99.90;;;;;;5013622;28;20027;-73
2022/04/15 10:31:11;;;;;;;12.75;6.03;;;9.90;99.90;;;;;;4995678;28;20117;-71
2022/04/15 10:33:39;;;;;;;15.45;7.10;;;10.00;99.90;;;;;;5013932;28;20038;-73
2022/04/15 10:36:25;;;;;;;15.43;6.82;;;10.10;99.90;;;;;;5014441;28;20026;-73
2022/04/15 10:39:06;;;;;;;13.18;6.53;;;10.00;99.90;;;;;;5013288;28;20379;-73
2022/04/15 10:41:48;;;;;;;18.73;6.70;;;10.10;99.90;;;;;;5013318;28;20034;-74
2022/04/15 10:44:25;;;;;;;13.05;6.22;;;10.10;99.90;;;;;;5014200;28;20034;-73
2022/04/15 10:46:51;;;;;;;13.98;6.95;;;10.10;99.90;;;;;;4996248;28;20022;-75
2022/04/15 10:49:27;;;;;;;12.68;6.35;;;10.00;99.90;;;;;;4995180;28;20041;-74
2022/04/15 10:52:18;;;;;;;14.73;6.95;;;10.00;99.90;;;;;;4995332;28;20454;-74
2022/04/15 10:54:48;;;;;;;19.45;7.07;;;10.00;99.90;;;;;;5000249;28;20046;-73
2022/04/15 10:57:21;;;;;;;15.77;6.53;;;9.80;99.90;;;;;;5012246;28;20027;-73
2022/04/15 11:02:51;;;;;;;26.08;6.72;;;9.90;99.90;;;;;;5012079;28;21073;-73
2022/04/15 11:05:33;;;;;;;12.10;6.53;;;10.00;99.90;;;;;;4996863;28;20052;-73
2022/04/15 11:08:13;;;;;;;17.48;6.97;;;10.00;99.90;;;;;;5011894;28;20060;-73
2022/04/15 11:11:07;;;;;;;12.40;6.70;;;10.00;99.90;;;;;;5013501;28;20038;-74
2022/04/15 11:13:53;;;;;;;;;;;10.00;99.90;;;;;;4990762;28;20030;-75
2022/04/15 11:16:22;;;;;;;17.27;6.32;;;10.10;99.90;;;;;;4993500;28;19918;-75
2022/04/15 11:18:54;;;;;;;14.90;6.32;;;10.10;99.90;;;;;;4993446;28;21247;-73
2022/04/15 11:21:41;;;;;;;19.63;7.35;;;10.20;99.90;;;;;;5011687;28;20033;-74
2022/04/15 11:24:14;;;;;;;12.60;5.88;;;10.30;99.90;;;;;;5005888;28;20030;-73
2022/04/15 11:26:44;;;;;;;15.75;5.95;;;10.30;99.90;;;;;;5008517;28;20018;-75
2022/04/15 11:29:21;;;;;;;18.75;7.00;;;10.30;99.90;;;;;;5009989;28;20093;-73
2022/04/15 11:31:46;;;;;;;12.88;5.35;;;10.30;99.90;;;;;;5009740;28;20026;-74
2022/04/15 11:34:15;;;;;;;13.25;5.82;;;10.20;99.90;;;;;;5008345;28;20132;-74
2022/04/15 11:36:43;;;;;;;17.67;5.78;;;10.10;99.90;;;;;;5012273;28;20022;-74
2022/04/15 11:39:21;;;;;;;20.08;6.18;;;10.00;99.90;;;;;;5027214;28;20065;-75
2022/04/15 11:41:54;;;;;;;13.63;6.47;;;10.10;99.90;;;;;;5010633;28;20034;-75
2022/04/15 11:44:31;;;;;;;12.80;5.97;;;10.10;99.90;;;;;;4992008;28;20037;-73
2022/04/15 11:47:15;;;;;;;14.50;5.55;;;10.10;99.90;;;;;;5006938;28;20050;-74
2022/04/15 11:49:56;;;;;;;9.70;5.05;;;10.10;99.90;;;;;;5009998;28;20040;-76
2022/04/15 11:52:27;;;;;;;12.20;4.72;;;10.10;99.90;;;;;;4994049;28;20037;-75
2022/04/15 11:54:56;;;;;;;10.65;5.55;;;10.20;99.90;;;;;;5012584;28;20035;-75
2022/04/15 11:57:23;;;;;;;15.20;5.10;;;10.20;99.90;;;;;;5012243;28;20041;-75
2022/04/15 11:59:50;;;;;;;10.48;5.13;;;10.40;99.90;;;;;;5011361;28;20037;-73
2022/04/15 12:02:22;;;;;;;13.23;5.43;;;10.50;99.90;;;;;;5013101;28;20037;-74
2022/04/15 12:04:57;;;;;;;13.32;5.80;;;10.60;99.90;;;;;;5012584;28;20042;-75
2022/04/15 12:07:29;;;;;;;12.52;4.82;;;10.80;99.90;;;;;;5012502;28;20038;-76
2022/04/15 12:09:55;;;;;;;9.85;4.65;;;10.90;99.90;;;;;;5012143;28;20026;-75
2022/04/15 12:12:23;;;;;;;11.02;4.30;;;11.00;99.90;;;;;;5013452;28;20045;-73
2022/04/15 12:14:53;;;;;;;13.93;5.32;;;11.10;99.90;;;;;;5012236;28;20030;-73
2022/04/15 12:17:20;;;;;;;14.77;4.80;;;11.30;99.90;;;;;;5012920;28;20053;-73
2022/04/15 12:19:50;;;;;;;11.13;4.97;;;11.40;99.90;;;;;;4994388;28;20030;-73
2022/04/15 12:22:17;;;;;;;9.98;5.00;;;11.40;99.90;;;;;;5010597;28;20359;-74
2022/04/15 12:24:42;;;;;;;9.68;4.68;;;11.50;99.90;;;;;;4994329;28;20025;-75
2022/04/15 12:27:14;;;;;;;9.80;4.70;;;11.60;99.90;;;;;;4994672;28;20394;-74
2022/04/15 12:29:49;;;;;;;11.10;5.28;;;11.70;99.90;;;;;;5013154;28;20037;-73
2022/04/15 12:32:32;;;;;;;9.25;4.70;;;11.80;99.90;;;;;;4996408;28;20040;-74
2022/04/15 12:35:05;;;;;;;13.80;5.53;;;12.10;99.90;;;;;;4995324;28;20507;-75
2022/04/15 12:38:01;;;;;;;8.50;5.13;;;12.30;99.90;;;;;;5011714;28;20021;-75
2022/04/15 12:40:31;;;;;;;9.85;3.90;;;12.40;99.90;;;;;;4993158;28;20038;-75
2022/04/15 12:43:17;;;;;;;7.75;4.10;;;12.30;99.90;;;;;;5012052;28;20097;-75
2022/04/15 12:45:54;;;;;;;8.35;4.65;;;12.40;99.90;;;;;;5018629;28;20044;-74
2022/04/15 12:48:24;;;;;;;12.60;4.30;;;12.40;99.90;;;;;;5025920;28;20049;-74
2022/04/15 12:50:55;;;;;;;9.57;4.70;;;12.40;99.90;;;;;;5027610;28;20030;-75
2022/04/15 12:53:52;;;;;;;10.07;4.88;;;12.40;99.90;;;;;;5003335;28;20099;-74
2022/04/15 12:56:18;;;;;;;8.55;4.63;;;12.30;99.90;;;;;;4994991;28;20041;-74
2022/04/15 12:58:54;;;;;;;15.13;5.20;;;12.10;99.90;;;;;;5009885;28;20038;-74